sensor_id;sensor_type;location;lat;lon;timestamp;pressure;altitude;pressure_sealevel;temperature;humidity
30744;BME280;17486;46.738;7.622;2022-07-22T00:02:19;95560.03;;;23.86;51.47
30744;BME280;17486;46.738;7.622;2022-07-22T00:04:44;95558.66;;;23.82;51.64
30744;BME280;17486;46.738;7.622;2022-07-22T00:07:10;95532.81;;;23.56;52.03
30744;BME280;17486;46.738;7.622;2022-07-22T00:09:35;95578.00;;;23.74;52.42
30744;BME280;17486;46.738;7.622;2022-07-22T00:12:01;95530.09;;;23.48;52.37
30744;BME280;17486;46.738;7.622;2022-07-22T00:14:26;95534.53;;;23.47;52.52
30744;BME280;17486;46.738;7.622;2022-07-22T00:16:52;95527.31;;;23.40;52.83
30744;BME280;17486;46.738;7.622;2022-07-22T00:19:17;95514.25;;;23.28;53.00
30744;BME280;17486;46.738;7.622;2022-07-22T00:21:43;95554.66;;;23.50;52.91
30744;BME280;17486;46.738;7.622;2022-07-22T00:24:08;95529.22;;;23.29;52.98
30744;BME280;17486;46.738;7.622;2022-07-22T00:26:34;95560.25;;;23.47;53.07
30744;BME280;17486;46.738;7.622;2022-07-22T00:28:59;95549.09;;;23.43;52.99
30744;BME280;17486;46.738;7.622;2022-07-22T00:31:25;95555.53;;;23.41;52.96
30744;BME280;17486;46.738;7.622;2022-07-22T00:33:50;95556.38;;;23.41;52.91
30744;BME280;17486;46.738;7.622;2022-07-22T00:36:16;95536.88;;;23.32;52.89
30744;BME280;17486;46.738;7.622;2022-07-22T00:38:41;95552.72;;;23.42;52.66
30744;BME280;17486;46.738;7.622;2022-07-22T00:41:07;95511.50;;;23.20;52.25
30744;BME280;17486;46.738;7.622;2022-07-22T00:43:56;95546.91;;;23.39;51.89
30744;BME280;17486;46.738;7.622;2022-07-22T00:46:23;95511.75;;;23.27;52.05
30744;BME280;17486;46.738;7.622;2022-07-22T00:48:49;95501.88;;;23.19;51.88
30744;BME280;17486;46.738;7.622;2022-07-22T00:51:16;95536.97;;;23.41;52.01
30744;BME280;17486;46.738;7.622;2022-07-22T00:53:42;95518.28;;;23.32;51.73
30744;BME280;17486;46.738;7.622;2022-07-22T00:56:09;95522.69;;;23.42;51.67
30744;BME280;17486;46.738;7.622;2022-07-22T00:58:34;95481.09;;;23.14;51.66
30744;BME280;17486;46.738;7.622;2022-07-22T01:01:00;95519.97;;;23.33;52.03
30744;BME280;17486;46.738;7.622;2022-07-22T01:03:25;95515.94;;;23.29;52.11
30744;BME280;17486;46.738;7.622;2022-07-22T01:05:51;95480.00;;;23.07;52.12
30744;BME280;17486;46.738;7.622;2022-07-22T01:08:16;95483.63;;;23.06;52.17
30744;BME280;17486;46.738;7.622;2022-07-22T01:10:42;95510.66;;;23.20;52.12
30744;BME280;17486;46.738;7.622;2022-07-22T01:13:08;95509.56;;;23.12;52.40
30744;BME280;17486;46.738;7.622;2022-07-22T01:15:33;95509.91;;;22.99;52.57
30744;BME280;17486;46.738;7.622;2022-07-22T01:17:59;95499.19;;;22.91;52.48
30744;BME280;17486;46.738;7.622;2022-07-22T01:20:25;95507.97;;;22.92;52.51
30744;BME280;17486;46.738;7.622;2022-07-22T01:22:51;95509.41;;;22.86;52.67
30744;BME280;17486;46.738;7.622;2022-07-22T01:25:16;95503.81;;;22.79;52.76
30744;BME280;17486;46.738;7.622;2022-07-22T01:27:42;95502.69;;;22.82;52.81
30744;BME280;17486;46.738;7.622;2022-07-22T01:30:08;95505.50;;;22.80;53.02
30744;BME280;17486;46.738;7.622;2022-07-22T01:32:33;95470.94;;;22.62;52.89
30744;BME280;17486;46.738;7.622;2022-07-22T01:34:59;95495.44;;;22.84;52.56
30744;BME280;17486;46.738;7.622;2022-07-22T01:37:24;95458.81;;;22.69;52.63
30744;BME280;17486;46.738;7.622;2022-07-22T01:39:50;95493.28;;;22.97;52.77
30744;BME280;17486;46.738;7.622;2022-07-22T01:42:15;95494.09;;;23.08;52.30
30744;BME280;17486;46.738;7.622;2022-07-22T01:44:41;95489.22;;;23.03;52.10
30744;BME280;17486;46.738;7.622;2022-07-22T01:47:07;95501.88;;;23.09;52.08
30744;BME280;17486;46.738;7.622;2022-07-22T01:49:33;95487.56;;;23.02;52.09
30744;BME280;17486;46.738;7.622;2022-07-22T01:52:00;95499.31;;;22.99;52.12
30744;BME280;17486;46.738;7.622;2022-07-22T01:54:25;95460.88;;;22.76;52.19
30744;BME280;17486;46.738;7.622;2022-07-22T01:56:51;95481.78;;;22.79;52.24
30744;BME280;17486;46.738;7.622;2022-07-22T01:59:16;95455.97;;;22.43;52.55
30744;BME280;17486;46.738;7.622;2022-07-22T02:01:42;95460.84;;;22.38;53.11
30744;BME280;17486;46.738;7.622;2022-07-22T02:04:07;95495.44;;;22.46;53.25
30744;BME280;17486;46.738;7.622;2022-07-22T02:06:33;95491.97;;;22.36;54.12
30744;BME280;17486;46.738;7.622;2022-07-22T02:08:58;95482.91;;;22.29;53.89
30744;BME280;17486;46.738;7.622;2022-07-22T02:11:24;95485.41;;;22.30;54.21
30744;BME280;17486;46.738;7.622;2022-07-22T02:13:49;95491.13;;;22.35;54.01
30744;BME280;17486;46.738;7.622;2022-07-22T02:16:15;95455.56;;;22.18;54.31
30744;BME280;17486;46.738;7.622;2022-07-22T02:18:40;95483.59;;;22.41;54.33
30744;BME280;17486;46.738;7.622;2022-07-22T02:21:06;95441.50;;;22.18;54.49
30744;BME280;17486;46.738;7.622;2022-07-22T02:23:31;95479.97;;;22.42;54.20
30744;BME280;17486;46.738;7.622;2022-07-22T02:25:57;95469.38;;;22.42;54.11
30744;BME280;17486;46.738;7.622;2022-07-22T02:28:23;95470.03;;;22.44;54.25
30744;BME280;17486;46.738;7.622;2022-07-22T02:30:48;95472.03;;;22.42;54.24
30744;BME280;17486;46.738;7.622;2022-07-22T02:33:13;95474.22;;;22.46;54.29
30744;BME280;17486;46.738;7.622;2022-07-22T02:35:40;95487.88;;;22.51;54.30
30744;BME280;17486;46.738;7.622;2022-07-22T02:38:05;95486.75;;;22.54;53.94
30744;BME280;17486;46.738;7.622;2022-07-22T02:40:31;95486.59;;;22.56;54.03
30744;BME280;17486;46.738;7.622;2022-07-22T02:42:57;95477.69;;;22.57;53.95
30744;BME280;17486;46.738;7.622;2022-07-22T02:45:22;95469.47;;;22.50;54.34
30744;BME280;17486;46.738;7.622;2022-07-22T02:47:53;95498.06;;;22.56;54.04
30744;BME280;17486;46.738;7.622;2022-07-22T02:50:20;95450.66;;;22.33;54.15
30744;BME280;17486;46.738;7.622;2022-07-22T02:52:46;95447.59;;;22.28;54.28
30744;BME280;17486;46.738;7.622;2022-07-22T02:55:11;95494.44;;;22.47;54.12
30744;BME280;17486;46.738;7.622;2022-07-22T02:57:37;95456.97;;;22.23;54.34
30744;BME280;17486;46.738;7.622;2022-07-22T03:00:05;95490.41;;;22.33;54.51
30744;BME280;17486;46.738;7.622;2022-07-22T03:02:30;95482.44;;;22.33;54.49
30744;BME280;17486;46.738;7.622;2022-07-22T03:04:56;95437.88;;;21.99;54.77
30744;BME280;17486;46.738;7.622;2022-07-22T03:07:22;95476.47;;;22.22;54.83
30744;BME280;17486;46.738;7.622;2022-07-22T03:09:47;95451.44;;;21.96;55.09
30744;BME280;17486;46.738;7.622;2022-07-22T03:12:12;95484.16;;;22.15;54.93
30744;BME280;17486;46.738;7.622;2022-07-22T03:14:38;95484.44;;;22.12;55.11
30744;BME280;17486;46.738;7.622;2022-07-22T03:17:03;95482.22;;;22.07;55.09
30744;BME280;17486;46.738;7.622;2022-07-22T03:19:29;95480.97;;;22.01;55.42
30744;BME280;17486;46.738;7.622;2022-07-22T03:21:54;95475.41;;;21.95;55.20
30744;BME280;17486;46.738;7.622;2022-07-22T03:24:19;95452.00;;;21.70;55.64
30744;BME280;17486;46.738;7.622;2022-07-22T03:26:45;95464.69;;;21.77;55.77
30744;BME280;17486;46.738;7.622;2022-07-22T03:29:10;95474.72;;;21.73;55.95
30744;BME280;17486;46.738;7.622;2022-07-22T03:31:36;95472.50;;;21.68;56.15
30744;BME280;17486;46.738;7.622;2022-07-22T03:34:01;95491.16;;;21.77;56.24
30744;BME280;17486;46.738;7.622;2022-07-22T03:36:27;95484.03;;;21.77;56.28
30744;BME280;17486;46.738;7.622;2022-07-22T03:38:54;95490.75;;;21.81;56.25
30744;BME280;17486;46.738;7.622;2022-07-22T03:41:20;95464.56;;;21.68;56.03
30744;BME280;17486;46.738;7.622;2022-07-22T03:43:45;95489.91;;;21.81;55.94
30744;BME280;17486;46.738;7.622;2022-07-22T03:46:10;95483.78;;;21.80;56.08
30744;BME280;17486;46.738;7.622;2022-07-22T03:48:36;95486.84;;;21.85;55.96
30744;BME280;17486;46.738;7.622;2022-07-22T03:51:01;95492.97;;;21.86;55.97
30744;BME280;17486;46.738;7.622;2022-07-22T03:53:27;95486.13;;;21.83;56.14
30744;BME280;17486;46.738;7.622;2022-07-22T03:55:52;95449.09;;;21.54;56.47
30744;BME280;17486;46.738;7.622;2022-07-22T03:58:17;95462.19;;;21.56;56.23
30744;BME280;17486;46.738;7.622;2022-07-22T04:00:43;95446.97;;;21.48;56.53
30744;BME280;17486;46.738;7.622;2022-07-22T04:03:09;95478.75;;;21.67;56.49
30744;BME280;17486;46.738;7.622;2022-07-22T04:05:34;95482.91;;;21.60;56.41
30744;BME280;17486;46.738;7.622;2022-07-22T04:08:00;95475.78;;;21.51;56.74
30744;BME280;17486;46.738;7.622;2022-07-22T04:10:25;95475.78;;;21.51;56.89
30744;BME280;17486;46.738;7.622;2022-07-22T04:12:50;95479.81;;;21.45;56.79
30744;BME280;17486;46.738;7.622;2022-07-22T04:15:16;95477.44;;;21.32;57.14
30744;BME280;17486;46.738;7.622;2022-07-22T04:17:41;95482.16;;;21.29;57.60
30744;BME280;17486;46.738;7.622;2022-07-22T04:20:07;95488.59;;;21.26;57.57
30744;BME280;17486;46.738;7.622;2022-07-22T04:22:33;95452.63;;;21.04;57.77
30744;BME280;17486;46.738;7.622;2022-07-22T04:24:58;95470.44;;;21.12;57.89
30744;BME280;17486;46.738;7.622;2022-07-22T04:27:23;95446.31;;;20.95;58.00
30744;BME280;17486;46.738;7.622;2022-07-22T04:29:49;95482.97;;;21.19;58.08
30744;BME280;17486;46.738;7.622;2022-07-22T04:32:14;95492.19;;;21.25;57.99
30744;BME280;17486;46.738;7.622;2022-07-22T04:34:40;95485.66;;;21.29;57.86
30744;BME280;17486;46.738;7.622;2022-07-22T04:37:06;95438.41;;;21.05;57.61
30744;BME280;17486;46.738;7.622;2022-07-22T04:39:32;95488.44;;;21.28;57.82
30744;BME280;17486;46.738;7.622;2022-07-22T04:41:57;95443.56;;;21.07;57.83
30744;BME280;17486;46.738;7.622;2022-07-22T04:44:23;95437.19;;;21.09;57.75
30744;BME280;17486;46.738;7.622;2022-07-22T04:46:48;95446.38;;;21.15;58.04
30744;BME280;17486;46.738;7.622;2022-07-22T04:49:14;95447.03;;;21.17;57.83
30744;BME280;17486;46.738;7.622;2022-07-22T04:51:39;95436.06;;;21.12;57.74
30744;BME280;17486;46.738;7.622;2022-07-22T04:54:05;95445.78;;;21.11;57.80
30744;BME280;17486;46.738;7.622;2022-07-22T04:56:30;95478.81;;;21.27;58.12
30744;BME280;17486;46.738;7.622;2022-07-22T04:58:56;95479.34;;;21.20;58.20
30744;BME280;17486;46.738;7.622;2022-07-22T05:01:21;95488.16;;;21.21;58.16
30744;BME280;17486;46.738;7.622;2022-07-22T05:03:46;95488.00;;;21.23;58.15
30744;BME280;17486;46.738;7.622;2022-07-22T05:06:12;95482.28;;;21.27;58.12
30744;BME280;17486;46.738;7.622;2022-07-22T05:08:38;95469.34;;;21.24;57.89
30744;BME280;17486;46.738;7.622;2022-07-22T05:11:03;95476.06;;;21.38;57.75
30744;BME280;17486;46.738;7.622;2022-07-22T05:13:29;95491.53;;;21.43;57.84
30744;BME280;17486;46.738;7.622;2022-07-22T05:15:54;95426.31;;;21.22;57.66
30744;BME280;17486;46.738;7.622;2022-07-22T05:18:19;95476.22;;;21.56;57.59
30744;BME280;17486;46.738;7.622;2022-07-22T05:20:45;95456.88;;;21.56;57.66
30744;BME280;17486;46.738;7.622;2022-07-22T05:23:10;95468.56;;;21.63;57.28
30744;BME280;17486;46.738;7.622;2022-07-22T05:25:36;95463.16;;;21.64;57.01
30744;BME280;17486;46.738;7.622;2022-07-22T05:28:02;95463.28;;;21.73;56.88
30744;BME280;17486;46.738;7.622;2022-07-22T05:30:27;95471.50;;;21.79;56.78
30744;BME280;17486;46.738;7.622;2022-07-22T05:32:53;95473.06;;;21.92;56.28
30744;BME280;17486;46.738;7.622;2022-07-22T05:35:19;95468.56;;;22.02;55.93
30744;BME280;17486;46.738;7.622;2022-07-22T05:37:45;95419.78;;;21.85;55.44
30744;BME280;17486;46.738;7.622;2022-07-22T05:40:10;95420.75;;;21.94;55.43
30744;BME280;17486;46.738;7.622;2022-07-22T05:42:36;95455.44;;;22.20;55.30
30744;BME280;17486;46.738;7.622;2022-07-22T05:45:01;95416.84;;;21.98;55.16
30744;BME280;17486;46.738;7.622;2022-07-22T05:47:27;95456.53;;;22.27;55.47
30744;BME280;17486;46.738;7.622;2022-07-22T05:49:52;95438.97;;;22.26;55.48
30744;BME280;17486;46.738;7.622;2022-07-22T05:52:18;95452.09;;;22.38;55.11
30744;BME280;17486;46.738;7.622;2022-07-22T05:54:43;95439.50;;;22.40;55.01
30744;BME280;17486;46.738;7.622;2022-07-22T05:57:09;95415.94;;;22.27;55.12
30744;BME280;17486;46.738;7.622;2022-07-22T05:59:35;95448.56;;;22.47;55.23
30744;BME280;17486;46.738;7.622;2022-07-22T06:02:01;95452.59;;;22.51;55.25
30744;BME280;17486;46.738;7.622;2022-07-22T06:04:26;95446.75;;;22.47;54.67
30744;BME280;17486;46.738;7.622;2022-07-22T06:06:52;95415.38;;;22.33;54.46
30744;BME280;17486;46.738;7.622;2022-07-22T06:09:17;95451.41;;;22.63;54.08
30744;BME280;17486;46.738;7.622;2022-07-22T06:11:43;95445.53;;;22.69;53.71
30744;BME280;17486;46.738;7.622;2022-07-22T06:14:08;95413.66;;;22.51;53.17
30744;BME280;17486;46.738;7.622;2022-07-22T06:16:33;95451.66;;;22.80;53.02
30744;BME280;17486;46.738;7.622;2022-07-22T06:19:00;95453.72;;;22.86;53.09
30744;BME280;17486;46.738;7.622;2022-07-22T06:21:26;95421.69;;;22.69;52.68
30744;BME280;17486;46.738;7.622;2022-07-22T06:23:51;95452.13;;;22.93;52.88
30744;BME280;17486;46.738;7.622;2022-07-22T06:26:16;95449.28;;;23.05;52.66
30744;BME280;17486;46.738;7.622;2022-07-22T06:28:42;95414.69;;;22.96;52.34
30744;BME280;17486;46.738;7.622;2022-07-22T06:31:07;95418.44;;;23.04;52.28
30744;BME280;17486;46.738;7.622;2022-07-22T06:33:33;95444.66;;;23.34;52.30
30744;BME280;17486;46.738;7.622;2022-07-22T06:35:59;95448.75;;;23.47;52.17
30744;BME280;17486;46.738;7.622;2022-07-22T06:38:24;95442.84;;;23.53;51.17
30744;BME280;17486;46.738;7.622;2022-07-22T06:40:50;95441.25;;;23.60;50.92
30744;BME280;17486;46.738;7.622;2022-07-22T06:43:15;95448.63;;;23.66;50.48
30744;BME280;17486;46.738;7.622;2022-07-22T06:45:40;95409.63;;;23.49;50.34
30744;BME280;17486;46.738;7.622;2022-07-22T06:48:06;95433.50;;;23.67;50.86
30744;BME280;17486;46.738;7.622;2022-07-22T06:50:32;95444.59;;;23.80;51.33
30744;BME280;17486;46.738;7.622;2022-07-22T06:52:57;95443.97;;;23.87;52.05
30744;BME280;17486;46.738;7.622;2022-07-22T06:55:22;95453.69;;;23.96;52.79
30744;BME280;17486;46.738;7.622;2022-07-22T06:57:48;95441.16;;;24.06;53.06
30744;BME280;17486;46.738;7.622;2022-07-22T07:00:14;95441.00;;;24.08;53.86
30744;BME280;17486;46.738;7.622;2022-07-22T07:02:39;95436.53;;;24.08;53.79
30744;BME280;17486;46.738;7.622;2022-07-22T07:05:05;95435.06;;;24.14;53.31
30744;BME280;17486;46.738;7.622;2022-07-22T07:07:30;95430.59;;;24.14;53.20
30744;BME280;17486;46.738;7.622;2022-07-22T07:09:56;95439.97;;;24.27;53.42
30744;BME280;17486;46.738;7.622;2022-07-22T07:12:21;95440.50;;;24.30;52.90
30744;BME280;17486;46.738;7.622;2022-07-22T07:14:47;95440.19;;;24.33;52.11
30744;BME280;17486;46.738;7.622;2022-07-22T07:17:12;95411.69;;;24.17;53.09
30744;BME280;17486;46.738;7.622;2022-07-22T07:19:40;95440.59;;;24.47;53.72
30744;BME280;17486;46.738;7.622;2022-07-22T07:22:06;95425.69;;;24.54;52.21
30744;BME280;17486;46.738;7.622;2022-07-22T07:24:31;95428.25;;;24.64;51.39
30744;BME280;17486;46.738;7.622;2022-07-22T07:26:57;95433.81;;;24.79;51.75
30744;BME280;17486;46.738;7.622;2022-07-22T07:29:22;95426.72;;;24.96;51.17
30744;BME280;17486;46.738;7.622;2022-07-22T07:31:48;95441.75;;;25.13;50.67
30744;BME280;17486;46.738;7.622;2022-07-22T07:34:13;95401.31;;;25.10;50.06
30744;BME280;17486;46.738;7.622;2022-07-22T07:36:39;95406.16;;;25.31;49.78
30744;BME280;17486;46.738;7.622;2022-07-22T07:39:04;95417.72;;;25.48;48.87
30744;BME280;17486;46.738;7.622;2022-07-22T07:41:30;95428.75;;;25.61;48.31
30744;BME280;17486;46.738;7.622;2022-07-22T07:43:55;95418.56;;;25.65;48.42
30744;BME280;17486;46.738;7.622;2022-07-22T07:46:20;95403.09;;;25.60;48.43
30744;BME280;17486;46.738;7.622;2022-07-22T07:48:46;95418.75;;;25.72;48.71
30744;BME280;17486;46.738;7.622;2022-07-22T07:51:13;95415.75;;;25.75;49.04
30744;BME280;17486;46.738;7.622;2022-07-22T07:53:39;95380.75;;;25.53;49.81
30744;BME280;17486;46.738;7.622;2022-07-22T07:56:04;95414.59;;;25.77;49.69
30744;BME280;17486;46.738;7.622;2022-07-22T07:58:30;95419.09;;;25.85;49.57
30744;BME280;17486;46.738;7.622;2022-07-22T08:00:55;95420.25;;;25.91;49.29
30744;BME280;17486;46.738;7.622;2022-07-22T08:03:21;95374.78;;;25.76;49.46
30744;BME280;17486;46.738;7.622;2022-07-22T08:05:46;95372.13;;;25.76;49.43
30744;BME280;17486;46.738;7.622;2022-07-22T08:08:12;95374.13;;;25.74;49.37
30744;BME280;17486;46.738;7.622;2022-07-22T08:10:37;95370.47;;;25.75;49.65
30744;BME280;17486;46.738;7.622;2022-07-22T08:13:04;95390.94;;;25.91;49.22
30744;BME280;17486;46.738;7.622;2022-07-22T08:15:30;95403.06;;;26.02;49.26
30744;BME280;17486;46.738;7.622;2022-07-22T08:17:56;95373.78;;;25.85;49.02
30744;BME280;17486;46.738;7.622;2022-07-22T08:20:23;95399.59;;;26.09;48.96
30744;BME280;17486;46.738;7.622;2022-07-22T08:22:49;95384.59;;;26.00;48.70
30744;BME280;17486;46.738;7.622;2022-07-22T08:25:14;95389.78;;;26.10;48.80
30744;BME280;17486;46.738;7.622;2022-07-22T08:27:40;95400.41;;;26.26;48.60
30744;BME280;17486;46.738;7.622;2022-07-22T08:30:06;95398.38;;;26.37;48.44
30744;BME280;17486;46.738;7.622;2022-07-22T08:32:33;95389.34;;;26.46;46.86
30744;BME280;17486;46.738;7.622;2022-07-22T08:34:59;95404.97;;;26.65;46.38
30744;BME280;17486;46.738;7.622;2022-07-22T08:37:24;95398.63;;;26.75;46.19
30744;BME280;17486;46.738;7.622;2022-07-22T08:39:50;95402.22;;;26.90;45.59
30744;BME280;17486;46.738;7.622;2022-07-22T08:42:16;95394.16;;;26.98;45.03
30744;BME280;17486;46.738;7.622;2022-07-22T08:44:41;95395.09;;;27.14;44.95
30744;BME280;17486;46.738;7.622;2022-07-22T08:47:07;95374.59;;;27.06;44.39
30744;BME280;17486;46.738;7.622;2022-07-22T08:49:32;95404.53;;;27.25;43.71
30744;BME280;17486;46.738;7.622;2022-07-22T08:51:58;95375.59;;;27.13;43.71
30744;BME280;17486;46.738;7.622;2022-07-22T08:54:24;95367.03;;;27.18;43.82
30744;BME280;17486;46.738;7.622;2022-07-22T08:56:50;95393.31;;;27.38;43.42
30744;BME280;17486;46.738;7.622;2022-07-22T08:59:17;95381.53;;;27.24;43.80
30744;BME280;17486;46.738;7.622;2022-07-22T09:02:08;95394.41;;;27.20;44.29
30744;BME280;17486;46.738;7.622;2022-07-22T09:05:00;95400.38;;;27.22;44.81
30744;BME280;17486;46.738;7.622;2022-07-22T09:07:38;95397.91;;;27.21;44.66
30744;BME280;17486;46.738;7.622;2022-07-22T09:10:12;95366.59;;;27.06;44.83
30744;BME280;17486;46.738;7.622;2022-07-22T09:12:53;95370.44;;;27.04;45.49
30744;BME280;17486;46.738;7.622;2022-07-22T09:15:49;95390.56;;;27.23;45.46
30744;BME280;17486;46.738;7.622;2022-07-22T09:18:14;95361.81;;;27.02;44.63
30744;BME280;17486;46.738;7.622;2022-07-22T09:20:41;95395.41;;;27.19;44.33
30744;BME280;17486;46.738;7.622;2022-07-22T09:23:15;95365.28;;;27.02;45.00
30744;BME280;17486;46.738;7.622;2022-07-22T09:25:43;95399.69;;;27.28;44.77
30744;BME280;17486;46.738;7.622;2022-07-22T09:28:11;95386.13;;;27.07;44.42
30744;BME280;17486;46.738;7.622;2022-07-22T09:30:46;95380.44;;;27.10;45.01
30744;BME280;17486;46.738;7.622;2022-07-22T09:33:12;95385.03;;;27.24;45.18
30744;BME280;17486;46.738;7.622;2022-07-22T09:35:38;95388.66;;;27.32;44.87
30744;BME280;17486;46.738;7.622;2022-07-22T09:38:06;95380.66;;;27.32;44.70
30744;BME280;17486;46.738;7.622;2022-07-22T09:40:37;95353.94;;;27.32;44.03
30744;BME280;17486;46.738;7.622;2022-07-22T09:43:05;95382.75;;;27.68;43.76
30744;BME280;17486;46.738;7.622;2022-07-22T09:45:33;95384.69;;;27.97;43.53
30744;BME280;17486;46.738;7.622;2022-07-22T09:48:00;95355.59;;;28.17;42.85
30744;BME280;17486;46.738;7.622;2022-07-22T09:50:30;95363.38;;;28.42;42.92
30744;BME280;17486;46.738;7.622;2022-07-22T09:52:57;95375.00;;;28.79;42.02
30744;BME280;17486;46.738;7.622;2022-07-22T09:55:24;95384.84;;;29.08;41.38
30744;BME280;17486;46.738;7.622;2022-07-22T09:57:51;95379.63;;;29.22;40.67
30744;BME280;17486;46.738;7.622;2022-07-22T10:00:20;95383.53;;;29.41;40.67
30744;BME280;17486;46.738;7.622;2022-07-22T10:05:13;95377.56;;;29.60;39.72
30744;BME280;17486;46.738;7.622;2022-07-22T10:07:41;95360.66;;;29.60;40.33
30744;BME280;17486;46.738;7.622;2022-07-22T10:10:08;95367.69;;;29.61;39.61
30744;BME280;17486;46.738;7.622;2022-07-22T10:12:36;95366.72;;;29.47;39.78
30744;BME280;17486;46.738;7.622;2022-07-22T10:15:02;95357.00;;;29.46;39.59
30744;BME280;17486;46.738;7.622;2022-07-22T10:17:28;95365.84;;;29.40;39.74
30744;BME280;17486;46.738;7.622;2022-07-22T10:19:54;95354.97;;;29.26;40.01
30744;BME280;17486;46.738;7.622;2022-07-22T10:25:04;95345.81;;;29.21;39.96
30744;BME280;17486;46.738;7.622;2022-07-22T10:30:13;95352.94;;;29.28;38.22
30744;BME280;17486;46.738;7.622;2022-07-22T10:32:39;95327.00;;;29.14;38.14
30744;BME280;17486;46.738;7.622;2022-07-22T10:40:18;95345.66;;;29.44;39.17
30744;BME280;17486;46.738;7.622;2022-07-22T10:45:58;95340.03;;;29.60;38.33
30744;BME280;17486;46.738;7.622;2022-07-22T10:51:28;95336.06;;;29.78;38.94
30744;BME280;17486;46.738;7.622;2022-07-22T10:56:29;95340.47;;;30.14;37.01
30744;BME280;17486;46.738;7.622;2022-07-22T10:58:58;95327.00;;;30.36;35.51
30744;BME280;17486;46.738;7.622;2022-07-22T11:01:30;95296.50;;;30.43;35.84
30744;BME280;17486;46.738;7.622;2022-07-22T11:04:06;95287.94;;;30.68;35.30
30744;BME280;17486;46.738;7.622;2022-07-22T11:06:32;95316.53;;;30.96;33.58
30744;BME280;17486;46.738;7.622;2022-07-22T11:09:00;95312.69;;;31.12;34.21
30744;BME280;17486;46.738;7.622;2022-07-22T11:13:57;95315.84;;;31.36;34.35
30744;BME280;17486;46.738;7.622;2022-07-22T11:16:24;95305.28;;;31.54;34.42
30744;BME280;17486;46.738;7.622;2022-07-22T11:19:00;95273.84;;;31.41;33.98
30744;BME280;17486;46.738;7.622;2022-07-22T11:21:28;95276.97;;;31.58;32.51
30744;BME280;17486;46.738;7.622;2022-07-22T11:23:56;95302.44;;;31.83;32.92
30744;BME280;17486;46.738;7.622;2022-07-22T11:26:32;95301.81;;;32.01;33.22
30744;BME280;17486;46.738;7.622;2022-07-22T11:28:58;95297.66;;;31.85;31.86
30744;BME280;17486;46.738;7.622;2022-07-22T11:31:24;95299.34;;;31.79;31.61
30744;BME280;17486;46.738;7.622;2022-07-22T11:33:49;95293.16;;;31.65;32.13
30744;BME280;17486;46.738;7.622;2022-07-22T11:36:15;95266.63;;;31.49;32.17
30744;BME280;17486;46.738;7.622;2022-07-22T11:38:45;95289.81;;;31.43;32.42
30744;BME280;17486;46.738;7.622;2022-07-22T11:41:12;95297.66;;;31.38;33.18
30744;BME280;17486;46.738;7.622;2022-07-22T11:43:43;95274.06;;;31.27;32.84
30744;BME280;17486;46.738;7.622;2022-07-22T11:46:09;95264.75;;;31.22;33.22
30744;BME280;17486;46.738;7.622;2022-07-22T11:48:34;95251.06;;;31.04;32.24
30744;BME280;17486;46.738;7.622;2022-07-22T11:51:01;95265.34;;;31.11;32.87
30744;BME280;17486;46.738;7.622;2022-07-22T11:53:27;95288.75;;;31.31;32.68
30744;BME280;17486;46.738;7.622;2022-07-22T11:55:59;95283.16;;;31.32;32.91
30744;BME280;17486;46.738;7.622;2022-07-22T11:58:46;95281.91;;;31.35;33.22
30744;BME280;17486;46.738;7.622;2022-07-22T12:01:14;95248.84;;;31.28;32.50
30744;BME280;17486;46.738;7.622;2022-07-22T12:03:45;95273.66;;;31.43;31.97
30744;BME280;17486;46.738;7.622;2022-07-22T12:06:13;95271.59;;;31.52;32.25
30744;BME280;17486;46.738;7.622;2022-07-22T12:08:44;95260.03;;;31.78;32.63
30744;BME280;17486;46.738;7.622;2022-07-22T12:11:10;95266.81;;;32.07;31.92
30744;BME280;17486;46.738;7.622;2022-07-22T12:13:41;95264.53;;;32.24;32.09
30744;BME280;17486;46.738;7.622;2022-07-22T12:18:54;95262.94;;;32.62;32.05
30744;BME280;17486;46.738;7.622;2022-07-22T12:21:20;95263.13;;;32.74;31.88
30744;BME280;17486;46.738;7.622;2022-07-22T12:24:07;95240.47;;;32.82;32.07
30744;BME280;17486;46.738;7.622;2022-07-22T12:26:37;95246.34;;;33.04;32.38
30744;BME280;17486;46.738;7.622;2022-07-22T12:31:51;95221.75;;;33.00;33.24
30744;BME280;17486;46.738;7.622;2022-07-22T12:34:28;95222.22;;;33.16;33.29
30744;BME280;17486;46.738;7.622;2022-07-22T12:36:54;95226.31;;;33.32;32.82
30744;BME280;17486;46.738;7.622;2022-07-22T12:39:20;95217.25;;;33.45;33.00
30744;BME280;17486;46.738;7.622;2022-07-22T12:41:50;95251.88;;;33.73;32.32
30744;BME280;17486;46.738;7.622;2022-07-22T12:44:26;95243.75;;;33.80;32.45
30744;BME280;17486;46.738;7.622;2022-07-22T12:46:55;95220.66;;;33.84;32.05
30744;BME280;17486;46.738;7.622;2022-07-22T12:49:25;95246.44;;;34.05;31.92
30744;BME280;17486;46.738;7.622;2022-07-22T12:54:32;95239.81;;;34.01;31.70
30744;BME280;17486;46.738;7.622;2022-07-22T12:56:57;95241.66;;;33.82;31.67
30744;BME280;17486;46.738;7.622;2022-07-22T12:59:22;95211.06;;;33.44;31.93
30744;BME280;17486;46.738;7.622;2022-07-22T13:01:48;95232.19;;;33.47;32.66
30744;BME280;17486;46.738;7.622;2022-07-22T13:04:14;95237.25;;;33.37;32.25
30744;BME280;17486;46.738;7.622;2022-07-22T13:06:39;95244.13;;;33.33;32.03
30744;BME280;17486;46.738;7.622;2022-07-22T13:09:05;95235.47;;;33.24;32.39
30744;BME280;17486;46.738;7.622;2022-07-22T13:11:31;95208.44;;;33.05;32.02
30744;BME280;17486;46.738;7.622;2022-07-22T13:13:56;95221.25;;;33.10;31.59
30744;BME280;17486;46.738;7.622;2022-07-22T13:16:22;95200.81;;;32.96;32.06
30744;BME280;17486;46.738;7.622;2022-07-22T13:18:50;95213.66;;;33.00;32.11
30744;BME280;17486;46.738;7.622;2022-07-22T13:21:15;95205.75;;;32.99;32.14
30744;BME280;17486;46.738;7.622;2022-07-22T13:23:41;95232.13;;;33.22;31.85
30744;BME280;17486;46.738;7.622;2022-07-22T13:26:06;95231.91;;;33.30;32.49
30744;BME280;17486;46.738;7.622;2022-07-22T13:28:31;95236.47;;;33.30;32.38
30744;BME280;17486;46.738;7.622;2022-07-22T13:30:57;95210.31;;;33.30;31.74